San Andreas, California
Current Conditions -  °F | °C
As of 2:35 PM on Sunday 23 Nov 2014 (Local Time) from KO22 Reporting Station
Broken Clouds Broken Clouds  
Wind Chill: 10°   Ceiling: 12000
Heat Index: 10°   Visibility: 10mi
Dew Point: 10°   Wind: 3mph
Humidity: 100%   Direction: 180°S
Pressure: 30.27"   Gusts: NA
Location:  38.2°N, 120.68°W
Report Text: KO22 232235Z AUTO 18003KT 10SM BKN120 10/10 A3027 RMK AO1
Loading
Personal Weather Stations






























Interactive Weather Map New forecast layout! Learn more

10-Day Weather Forecast

Advertisements
Track Severe Weather on mobile